createdAt,value
2018-06-04T00:00:51.384Z,82.00
2018-06-04T00:03:21.302Z,82.70
2018-06-04T00:05:51.153Z,83.10
2018-06-04T00:08:22.062Z,83.70
2018-06-04T00:10:51.987Z,83.70
2018-06-04T00:13:25.514Z,83.70
2018-06-04T00:15:55.482Z,83.20
2018-06-04T00:18:25.356Z,82.70
2018-06-04T00:20:56.639Z,82.20
2018-06-04T00:23:29.017Z,81.60
2018-06-04T00:25:59.745Z,81.20
2018-06-04T00:28:34.562Z,80.70
2018-06-04T00:31:06.530Z,80.50
2018-06-04T00:33:40.051Z,80.20
2018-06-04T00:36:13.663Z,79.80
2018-06-04T00:38:44.678Z,79.40
2018-06-04T00:41:50.840Z,79.20
2018-06-04T00:44:22.882Z,79.00
2018-06-04T00:50:06.145Z,78.20
2018-06-04T00:59:11.511Z,76.60
2018-06-04T01:01:41.372Z,76.00
2018-06-04T01:04:11.235Z,75.80
2018-06-04T01:06:41.123Z,75.50
2018-06-04T01:09:11.745Z,75.30
2018-06-04T01:11:41.602Z,75.30
2018-06-04T01:14:11.500Z,75.30
2018-06-04T01:16:41.344Z,75.00
2018-06-04T01:19:11.219Z,74.60
2018-06-04T01:21:41.884Z,73.90
2018-06-04T01:24:11.961Z,73.90
2018-06-04T01:26:43.575Z,72.50
2018-06-04T01:29:13.488Z,72.40
2018-06-04T01:31:43.304Z,72.00
2018-06-04T01:34:13.218Z,71.90
2018-06-04T01:36:43.083Z,71.20
2018-06-04T01:39:12.942Z,70.80
2018-06-04T01:41:42.886Z,70.90
2018-06-04T01:44:12.724Z,70.80
2018-06-04T01:46:43.358Z,70.60
2018-06-04T01:49:13.217Z,70.50
2018-06-04T01:51:43.085Z,71.20
2018-06-04T01:54:12.934Z,72.00
2018-06-04T01:56:42.768Z,72.00
2018-06-04T01:59:12.677Z,71.90
2018-06-04T02:01:42.526Z,72.20
2018-06-04T02:04:13.139Z,72.00
2018-06-04T02:18:06.702Z,71.20
2018-06-04T02:23:11.744Z,67.30
2018-06-04T02:25:45.031Z,67.60
2018-06-04T02:28:18.305Z,67.10
2018-06-04T02:30:51.908Z,67.00
2018-06-04T02:33:25.314Z,66.70
2018-06-04T02:35:58.631Z,66.30
2018-06-04T02:38:31.889Z,66.00
2018-06-04T02:41:05.210Z,66.00
2018-06-04T02:43:38.492Z,66.10
2018-06-04T02:46:11.795Z,66.80
2018-06-04T02:48:45.086Z,66.60
2018-06-04T02:53:50.050Z,65.30
2018-06-04T02:56:23.521Z,64.90
2018-06-04T02:58:56.838Z,64.30
2018-06-04T03:01:30.133Z,62.70
2018-06-04T03:04:03.470Z,63.00
2018-06-04T03:06:36.733Z,62.30
2018-06-04T03:09:11.891Z,62.40
2018-06-04T03:11:45.179Z,61.20
2018-06-04T03:14:18.471Z,62.50
2018-06-04T03:16:51.730Z,61.80
2018-06-04T03:19:24.981Z,61.20
2018-06-04T03:21:58.363Z,60.40
2018-06-04T03:24:31.650Z,61.50
2018-06-04T03:27:05.074Z,61.30
2018-06-04T03:29:38.402Z,61.00
2018-06-04T03:32:11.694Z,60.80
2018-06-04T03:34:45.210Z,61.60
2018-06-04T03:37:18.702Z,60.60
2018-06-04T03:39:52.110Z,60.30
2018-06-04T03:42:25.448Z,60.30
2018-06-04T03:44:58.803Z,59.80
2018-06-04T03:47:32.940Z,60.00
2018-06-04T03:50:06.510Z,60.00
2018-06-04T03:52:39.793Z,59.50
2018-06-04T03:55:13.076Z,59.30
2018-06-04T03:57:46.570Z,59.30
2018-06-04T04:00:20.585Z,58.70
2018-06-04T04:02:53.877Z,58.10
2018-06-04T04:05:27.282Z,58.40
2018-06-04T04:08:00.580Z,57.50
2018-06-04T04:10:33.804Z,58.20
2018-06-04T04:13:07.095Z,57.60
2018-06-04T04:15:40.462Z,57.40
2018-06-04T04:18:14.480Z,57.10
2018-06-04T04:20:47.655Z,57.10
2018-06-04T04:23:20.897Z,56.80
2018-06-04T04:25:54.222Z,56.30
2018-06-04T04:28:27.590Z,56.90
2018-06-04T04:31:00.984Z,56.90
2018-06-04T04:33:34.444Z,56.60
2018-06-04T04:36:07.770Z,56.40
2018-06-04T04:38:41.436Z,55.80
2018-06-04T04:41:14.805Z,56.00
2018-06-04T04:43:48.179Z,55.50
2018-06-04T04:46:21.548Z,56.10
2018-06-04T04:48:54.833Z,55.70
2018-06-04T04:51:28.114Z,55.60
2018-06-04T04:54:01.471Z,55.90
2018-06-04T04:56:34.812Z,56.00
2018-06-04T04:59:08.115Z,55.70
2018-06-04T05:01:41.303Z,56.00
2018-06-04T05:04:14.542Z,56.10
2018-06-04T05:06:47.793Z,55.70
2018-06-04T05:09:21.018Z,55.50
2018-06-04T05:11:54.245Z,55.80
2018-06-04T05:17:00.406Z,55.80
2018-06-04T05:19:35.929Z,55.40
2018-06-04T05:22:09.373Z,55.70
2018-06-04T05:24:42.615Z,56.60
2018-06-04T05:27:16.067Z,56.70
2018-06-04T05:29:49.333Z,56.00
2018-06-04T05:32:23.835Z,55.90
2018-06-04T05:34:57.131Z,56.40
2018-06-04T05:37:31.461Z,55.80
2018-06-04T05:40:04.873Z,56.20
2018-06-04T05:42:38.879Z,56.70
2018-06-04T05:45:12.129Z,56.70
2018-06-04T05:47:46.225Z,56.80
2018-06-04T05:50:19.415Z,56.70
2018-06-04T05:52:56.321Z,57.20
2018-06-04T05:55:29.545Z,58.00
2018-06-04T05:58:02.772Z,59.00
2018-06-04T06:00:36.122Z,59.90
2018-06-04T06:03:09.448Z,60.30
2018-06-04T06:05:42.697Z,60.50
2018-06-04T06:08:15.977Z,60.50
2018-06-04T06:10:50.357Z,60.90
2018-06-04T06:13:23.651Z,60.60
2018-06-04T06:15:56.841Z,60.20
2018-06-04T06:18:30.920Z,59.60
2018-06-04T06:21:04.248Z,59.40
2018-06-04T06:23:37.536Z,58.80
2018-06-04T06:26:10.793Z,58.30
2018-06-04T06:28:44.923Z,58.40
2018-06-04T06:31:18.235Z,59.40
2018-06-04T06:33:52.054Z,58.50
2018-06-04T06:36:25.296Z,58.70
2018-06-04T06:41:31.317Z,59.90
2018-06-04T06:44:06.573Z,59.50
2018-06-04T06:46:40.014Z,60.40
2018-06-04T06:49:13.325Z,60.70
2018-06-04T06:51:46.609Z,61.30
2018-06-04T06:54:19.826Z,60.70
2018-06-04T06:56:53.048Z,60.90
2018-06-04T06:59:26.279Z,60.60
2018-06-04T07:01:59.622Z,61.10
2018-06-04T07:04:32.899Z,61.10
2018-06-04T07:09:38.004Z,61.60
2018-06-04T07:12:11.219Z,61.80
2018-06-04T07:14:44.487Z,61.10
2018-06-04T07:17:17.799Z,61.50
2018-06-04T07:19:51.077Z,61.40
2018-06-04T07:22:24.460Z,61.50
2018-06-04T07:24:57.727Z,60.80
2018-06-04T07:27:31.106Z,62.00
2018-06-04T07:30:04.457Z,61.60
2018-06-04T07:32:37.796Z,61.60
2018-06-04T07:35:11.192Z,62.30
2018-06-04T07:37:44.495Z,62.60
2018-06-04T07:40:17.809Z,62.50
2018-06-04T07:42:51.214Z,62.40
2018-06-04T07:45:25.003Z,61.90
2018-06-04T07:47:58.276Z,62.10
2018-06-04T07:50:31.892Z,62.10
2018-06-04T07:53:05.230Z,62.40
2018-06-04T07:55:38.601Z,62.40
2018-06-04T07:58:11.823Z,62.30
2018-06-04T08:00:45.336Z,63.00
2018-06-04T08:03:18.620Z,62.90
2018-06-04T08:05:51.856Z,64.00
2018-06-04T08:08:25.135Z,63.00
2018-06-04T08:10:58.414Z,62.90
2018-06-04T08:13:31.677Z,62.70
2018-06-04T08:16:04.977Z,62.00
2018-06-04T08:18:38.280Z,60.70
2018-06-04T08:21:11.733Z,59.70
2018-06-04T08:23:45.124Z,59.50
2018-06-04T08:26:18.590Z,59.50
2018-06-04T08:28:51.857Z,59.50
2018-06-04T08:31:25.147Z,59.30
2018-06-04T08:33:58.414Z,59.70
2018-06-04T08:36:31.709Z,59.90
2018-06-04T08:39:05.220Z,59.80
2018-06-04T08:41:38.583Z,59.80
2018-06-04T08:44:12.709Z,59.60
2018-06-04T08:46:46.059Z,59.40
2018-06-04T08:49:20.223Z,59.50
2018-06-04T08:51:53.408Z,59.50
2018-06-04T08:54:26.742Z,59.70
2018-06-04T08:57:00.026Z,59.50
2018-06-04T08:59:33.542Z,59.90
2018-06-04T09:02:07.586Z,60.00
2018-06-04T09:07:12.774Z,60.60
2018-06-04T09:09:46.306Z,60.60
2018-06-04T09:12:19.768Z,60.20
2018-06-04T09:14:52.997Z,60.30
2018-06-04T09:17:26.291Z,61.10
2018-06-04T09:19:59.574Z,61.60
2018-06-04T09:22:33.025Z,61.30
2018-06-04T09:25:08.157Z,61.40
2018-06-04T09:27:41.530Z,61.70
2018-06-04T09:30:14.800Z,62.00
2018-06-04T09:32:48.066Z,61.60
2018-06-04T09:35:21.394Z,61.00
2018-06-04T09:37:54.682Z,60.50
2018-06-04T09:40:27.983Z,60.60
2018-06-04T09:43:01.272Z,60.70
2018-06-04T09:45:34.627Z,60.80
2018-06-04T09:48:07.993Z,60.90
2018-06-04T09:50:41.237Z,61.00
2018-06-04T09:53:14.897Z,60.70
2018-06-04T09:55:48.250Z,59.90
2018-06-04T09:58:21.591Z,60.50
2018-06-04T10:00:54.996Z,61.50
2018-06-04T10:03:28.187Z,62.70
2018-06-04T10:06:01.565Z,61.70
2018-06-04T10:08:34.978Z,63.40
2018-06-04T10:11:08.359Z,64.30
2018-06-04T10:13:44.717Z,64.20
2018-06-04T10:16:19.096Z,64.80
2018-06-04T10:18:52.589Z,64.70
2018-06-04T10:21:25.899Z,64.70
2018-06-04T10:23:59.238Z,65.20
2018-06-04T10:26:32.548Z,65.10
2018-06-04T10:29:07.841Z,65.50
2018-06-04T10:31:49.696Z,65.50
2018-06-04T10:34:24.004Z,65.30
2018-06-04T10:36:58.943Z,65.20
2018-06-04T10:39:32.383Z,65.80
2018-06-04T10:42:06.659Z,66.10
2018-06-04T10:44:40.871Z,65.90
2018-06-04T10:47:14.098Z,66.30
2018-06-04T10:49:48.463Z,66.30
2018-06-04T10:52:21.788Z,66.60
2018-06-04T10:54:55.899Z,66.70
2018-06-04T10:57:29.127Z,66.80
2018-06-04T11:00:02.890Z,67.30
2018-06-04T11:02:36.170Z,67.00
2018-06-04T11:05:09.623Z,67.40
2018-06-04T11:07:42.981Z,68.00
2018-06-04T11:10:16.423Z,68.50
2018-06-04T11:12:49.737Z,69.00
2018-06-04T11:15:25.702Z,69.30
2018-06-04T11:17:59.958Z,69.80
2018-06-04T11:20:33.265Z,70.00
2018-06-04T11:23:06.586Z,69.80
2018-06-04T11:25:39.862Z,69.70
2018-06-04T11:30:44.975Z,70.30
2018-06-04T11:33:18.201Z,70.50
2018-06-04T11:35:51.508Z,70.90
2018-06-04T11:38:27.282Z,71.30
2018-06-04T11:41:02.133Z,71.20
2018-06-04T11:43:36.545Z,70.30
2018-06-04T11:46:14.494Z,70.60
2018-06-04T11:48:51.917Z,70.60
2018-06-04T11:51:27.186Z,71.60
2018-06-04T11:54:05.466Z,71.70
2018-06-04T11:56:39.066Z,70.90
2018-06-04T11:59:13.809Z,71.30
2018-06-04T12:01:49.282Z,71.70
2018-06-04T12:04:22.674Z,71.90
2018-06-04T12:06:56.015Z,72.10
2018-06-04T12:09:29.393Z,72.50
2018-06-04T12:12:02.744Z,72.50
2018-06-04T12:14:36.120Z,72.40
2018-06-04T12:17:11.974Z,72.60
2018-06-04T12:19:45.349Z,72.70
2018-06-04T12:22:19.635Z,73.50
2018-06-04T12:24:55.211Z,73.20
2018-06-04T12:27:30.096Z,73.40
2018-06-04T12:30:14.687Z,73.40
2018-06-04T12:32:50.231Z,73.80
2018-06-04T12:35:23.943Z,73.90
2018-06-04T12:37:57.225Z,74.00
2018-06-04T12:40:30.681Z,74.10
2018-06-04T12:43:04.064Z,74.30
2018-06-04T12:45:37.338Z,74.40
2018-06-04T12:48:10.737Z,74.40
2018-06-04T12:50:44.089Z,74.70
2018-06-04T12:53:17.576Z,74.70
2018-06-04T12:55:50.869Z,75.10
2018-06-04T12:58:24.430Z,75.30
2018-06-04T13:00:57.724Z,75.20
2018-06-04T13:03:31.181Z,75.10
2018-06-04T13:06:04.388Z,74.80
2018-06-04T13:08:39.556Z,74.80
2018-06-04T13:11:13.186Z,75.00
2018-06-04T13:13:46.589Z,75.00
2018-06-04T13:16:20.614Z,74.60
2018-06-04T13:18:55.844Z,74.70
2018-06-04T13:21:29.121Z,75.00
2018-06-04T13:24:03.362Z,75.00
2018-06-04T13:26:36.756Z,75.00
